Time;durP1;ratioP1;P1;durP2;ratioP2;P2;SDS_P1;SDS_P2;PMS_P1;PMS_P2;Temp;Humidity;BMP_temperature;BMP_pressure;BME280_temperature;BME280_humidity;BME280_pressure;Samples;Min_cycle;Max_cycle;Signal;HPM_P1;HPM_P2
2022/07/30 00:01:25;;;;;;;;;;;;;;;28.88;36.56;100685.06;5069784;28;1008;-39
2022/07/30 00:03:50;;;;;;;;;;;;;;;28.86;36.82;100687.16;5074308;28;997;-38
2022/07/30 00:06:15;;;;;;;;;;;;;;;28.92;37.28;100686.34;5073011;28;1021;-39
2022/07/30 00:08:41;;;;;;;;;;;;;;;28.92;36.95;100688.22;5068174;28;1025;-35
2022/07/30 00:11:06;;;;;;;;;;;;;;;28.90;37.64;100685.69;5071398;28;1492;-40
2022/07/30 00:13:31;;;;;;;;;;;;;;;28.92;36.97;100688.22;5072471;28;1139;-40
2022/07/30 00:15:56;;;;;;;;;;;;;;;28.94;37.64;100678.03;5068156;28;973;-39
2022/07/30 00:18:22;;;;;;;;;;;;;;;28.98;37.45;100679.31;5065100;28;1147;-40
2022/07/30 00:20:47;;;;;;;;;;;;;;;28.91;37.40;100681.94;5063938;28;1985;-38
2022/07/30 00:23:12;;;;;;;;;;;;;;;28.93;37.75;100668.22;5070009;28;908;-40
2022/07/30 00:25:38;;;;;;;;;;;;;;;28.95;37.61;100667.00;5066400;28;1131;-40
2022/07/30 00:28:03;;;;;;;;;;;;;;;28.98;37.49;100673.09;5069503;28;782;-39
2022/07/30 00:30:28;;;;;;;;;;;;;;;28.98;37.70;100668.50;5071388;28;1198;-37
2022/07/30 00:32:54;;;;;;;;;;;;;;;28.96;37.34;100670.56;5064131;28;954;-40
2022/07/30 00:35:19;;;;;;;;;;;;;;;29.01;37.56;100673.50;5070328;28;845;-38
2022/07/30 00:37:44;;;;;;;;;;;;;;;28.99;37.21;100670.19;5075987;28;997;-39
2022/07/30 00:40:10;;;;;;;;;;;;;;;28.94;37.65;100672.63;5068170;28;1897;-38
2022/07/30 00:42:36;;;;;;;;;;;;;;;28.92;37.57;100669.25;5067111;28;1115;-40
2022/07/30 00:45:01;;;;;;;;;;;;;;;28.96;37.48;100671.38;5072622;28;1020;-39
2022/07/30 00:47:26;;;;;;;;;;;;;;;28.94;37.10;100669.91;5071885;28;842;-39
2022/07/30 00:49:52;;;;;;;;;;;;;;;28.90;37.25;100669.47;5070317;28;1211;-39
2022/07/30 00:52:17;;;;;;;;;;;;;;;28.92;37.48;100664.69;5068759;28;1009;-38
2022/07/30 00:54:42;;;;;;;;;;;;;;;28.96;37.28;100667.84;5063076;28;941;-39
2022/07/30 00:57:07;;;;;;;;;;;;;;;28.97;37.05;100661.41;5073420;28;1016;-41
2022/07/30 00:59:33;;;;;;;;;;;;;;;28.94;37.15;100653.66;5066592;28;1898;-38
2022/07/30 01:02:00;;;;;;;;;;;;;;;29.00;37.38;100661.00;5068504;28;942;-41
2022/07/30 01:04:25;;;;;;;;;;;;;;;29.00;37.22;100661.00;5068026;28;997;-40
2022/07/30 01:06:50;;;;;;;;;;;;;;;29.01;37.38;100656.44;5074262;28;1160;-40
2022/07/30 01:09:16;;;;;;;;;;;;;;;29.03;37.21;100646.25;5067604;28;1095;-40
2022/07/30 01:11:41;;;;;;;;;;;;;;;28.95;37.44;100653.47;5070230;28;1115;-39
2022/07/30 01:14:07;;;;;;;;;;;;;;;29.00;37.30;100649.34;5069139;28;993;-39
2022/07/30 01:16:35;;;;;;;;;;;;;;;29.01;37.15;100651.84;5071211;28;1124;-39
2022/07/30 01:21:45;;;;;;;;;;;;;;;28.94;37.50;100650.94;5053048;28;990;-39
2022/07/30 01:24:15;;;;;;;;;;;;;;;28.99;37.27;100656.66;5071085;28;906;-41
2022/07/30 01:26:40;;;;;;;;;;;;;;;29.01;37.03;100651.84;5048821;28;1022;-40
2022/07/30 01:29:05;;;;;;;;;;;;;;;29.07;37.16;100655.66;5075215;28;1100;-40
2022/07/30 01:31:31;;;;;;;;;;;;;;;29.04;37.10;100651.47;5056096;28;973;-42
2022/07/30 01:33:56;;;;;;;;;;;;;;;29.07;37.10;100653.78;5052632;28;982;-41
2022/07/30 01:36:21;;;;;;;;;;;;;;;29.03;37.55;100651.69;5052034;28;1013;-40
2022/07/30 01:38:46;;;;;;;;;;;;;;;29.05;37.67;100652.28;5068633;28;1898;-39
2022/07/30 01:41:12;;;;;;;;;;;;;;;29.02;37.74;100650.84;5055383;28;1164;-42
2022/07/30 01:43:37;;;;;;;;;;;;;;;29.00;37.46;100641.22;5049003;28;970;-40
2022/07/30 01:46:02;;;;;;;;;;;;;;;29.03;37.78;100646.25;5045961;28;1199;-38
2022/07/30 01:48:28;;;;;;;;;;;;;;;29.03;37.35;100640.84;5069202;28;968;-40
2022/07/30 01:50:53;;;;;;;;;;;;;;;29.03;37.35;100632.72;5070218;28;1311;-41
2022/07/30 01:53:23;;;;;;;;;;;;;;;28.98;37.53;100644.13;5044425;28;1072;-39
2022/07/30 01:55:48;;;;;;;;;;;;;;;29.02;37.30;100648.13;5051632;28;938;-42
2022/07/30 01:58:13;;;;;;;;;;;;;;;29.03;37.50;100636.25;5048332;28;1060;-40
2022/07/30 02:00:39;;;;;;;;;;;;;;;29.04;37.55;100640.66;5066189;28;1973;-41
2022/07/30 02:03:04;;;;;;;;;;;;;;;29.05;37.36;100639.59;5044331;28;875;-39
2022/07/30 02:05:30;;;;;;;;;;;;;;;29.06;37.44;100638.56;5053565;28;1047;-38
2022/07/30 02:08:07;;;;;;;;;;;;;;;29.03;37.70;100638.13;5051987;28;1018;-40
2022/07/30 02:10:40;;;;;;;;;;;;;;;29.01;37.34;100632.06;5063733;28;1139;-40
2022/07/30 02:13:05;;;;;;;;;;;;;;;29.02;37.64;100637.28;5053432;28;1144;-39
2022/07/30 02:15:31;;;;;;;;;;;;;;;29.02;37.57;100640.00;5044940;28;1025;-40
2022/07/30 02:18:06;;;;;;;;;;;;;;;29.05;37.16;100638.75;5063120;28;962;-42
2022/07/30 02:20:31;;;;;;;;;;;;;;;29.03;37.10;100641.66;5042802;28;1984;-40
2022/07/30 02:22:58;;;;;;;;;;;;;;;29.05;37.36;100642.31;5074145;28;1044;-40
2022/07/30 02:25:24;;;;;;;;;;;;;;;29.03;37.18;100635.44;5050879;28;1022;-39
2022/07/30 02:27:51;;;;;;;;;;;;;;;29.03;37.16;100636.25;5045415;28;1287;-39
2022/07/30 02:30:16;;;;;;;;;;;;;;;29.04;37.22;100629.81;5051412;28;1025;-40
2022/07/30 02:32:42;;;;;;;;;;;;;;;29.06;36.85;100632.31;5056536;28;959;-40
2022/07/30 02:35:09;;;;;;;;;;;;;;;28.99;37.19;100634.97;5064859;28;934;-38
2022/07/30 02:37:34;;;;;;;;;;;;;;;28.99;37.52;100632.28;5058526;28;1049;-41
2022/07/30 02:39:59;;;;;;;;;;;;;;;29.02;37.18;100634.59;5057151;28;1976;-41
2022/07/30 02:42:25;;;;;;;;;;;;;;;29.04;37.19;100632.53;5045928;28;2156;-40
2022/07/30 02:44:51;;;;;;;;;;;;;;;29.06;36.92;100632.31;5056680;28;1919;-41
2022/07/30 02:47:16;;;;;;;;;;;;;;;29.06;37.31;100635.84;5070975;28;1847;-39
2022/07/30 02:49:41;;;;;;;;;;;;;;;29.05;37.19;100628.75;5065147;28;1821;-40
2022/07/30 02:52:07;;;;;;;;;;;;;;;29.13;37.16;100624.22;5074259;28;1942;-38
2022/07/30 02:54:33;;;;;;;;;;;;;;;29.06;37.56;100630.44;5050961;28;2008;-41
2022/07/30 02:56:58;;;;;;;;;;;;;;;29.14;37.66;100628.59;5075614;28;2101;-40
2022/07/30 02:59:24;;;;;;;;;;;;;;;29.11;37.26;100627.13;5065686;28;1901;-39
2022/07/30 03:01:50;;;;;;;;;;;;;;;29.15;37.71;100625.69;5056691;28;993;-40
2022/07/30 03:04:17;;;;;;;;;;;;;;;28.76;39.78;100633.31;5069744;28;1013;-34
2022/07/30 03:06:43;;;;;;;;;;;;;;;28.48;43.58;100626.88;5067335;28;1262;-35
2022/07/30 03:09:08;;;;;;;;;;;;;;;28.42;45.57;100627.66;5053477;28;1161;-35
2022/07/30 03:11:33;;;;;;;;;;;;;;;28.46;45.70;100625.41;5040595;28;1081;-35
2022/07/30 03:13:59;;;;;;;;;;;;;;;28.42;46.37;100637.63;5055726;28;1425;-33
2022/07/30 03:16:24;;;;;;;;;;;;;;;28.30;47.10;100631.88;5066227;28;993;-35
2022/07/30 03:18:49;;;;;;;;;;;;;;;28.18;47.57;100626.16;5054644;28;1910;-35
2022/07/30 03:21:15;;;;;;;;;;;;;;;28.30;47.57;100623.75;5048686;28;907;-36
2022/07/30 03:23:40;;;;;;;;;;;;;;;28.58;46.52;100631.94;5066293;28;1061;-37
2022/07/30 03:26:05;;;;;;;;;;;;;;;28.51;46.72;100630.22;5075687;28;1921;-32
2022/07/30 03:28:31;;;;;;;;;;;;;;;28.57;46.95;100633.00;5059077;28;1029;-38
2022/07/30 03:30:57;;;;;;;;;;;;;;;28.39;45.25;100632.63;5078157;28;1123;-39
2022/07/30 03:33:22;;;;;;;;;;;;;;;28.15;45.86;100632.78;5053183;28;1041;-33
2022/07/30 03:35:48;;;;;;;;;;;;;;;27.37;47.52;100635.03;5069760;28;1485;-36
2022/07/30 03:38:13;;;;;;;;;;;;;;;26.64;50.47;100628.31;5053624;28;1121;-34
2022/07/30 03:40:39;;;;;;;;;;;;;;;26.51;51.95;100634.34;5053269;28;1901;-36
2022/07/30 03:43:05;;;;;;;;;;;;;;;26.19;54.14;100638.09;5071587;28;1283;-36
2022/07/30 03:45:30;;;;;;;;;;;;;;;26.34;52.97;100636.31;5048549;28;1116;-35
2022/07/30 03:47:56;;;;;;;;;;;;;;;26.16;54.76;100644.66;5073154;28;1052;-33
2022/07/30 03:50:21;;;;;;;;;;;;;;;26.16;55.65;100642.81;5071724;28;1101;-32
2022/07/30 03:52:46;;;;;;;;;;;;;;;26.45;54.89;100635.06;5049544;28;1025;-36
2022/07/30 03:55:12;;;;;;;;;;;;;;;26.71;53.19;100641.91;5058574;28;1104;-39
2022/07/30 03:57:37;;;;;;;;;;;;;;;27.56;48.62;100640.03;5066289;28;1885;-39
2022/07/30 04:00:08;;;;;;;;;;;;;;;28.06;47.74;100651.00;5051677;28;1961;-40
2022/07/30 04:02:39;;;;;;;;;;;;;;;28.39;47.71;100646.16;5075008;28;1254;-39
2022/07/30 04:05:05;;;;;;;;;;;;;;;27.17;48.43;100640.16;5064021;28;965;-39
2022/07/30 04:07:30;;;;;;;;;;;;;;;27.79;47.23;100642.63;5071539;28;981;-37
2022/07/30 04:09:56;;;;;;;;;;;;;;;28.21;45.76;100648.25;5072943;28;1227;-35
2022/07/30 04:12:21;;;;;;;;;;;;;;;28.46;44.56;100642.47;5072023;28;1056;-37
2022/07/30 04:14:46;;;;;;;;;;;;;;;28.57;44.05;100645.69;5069115;28;1132;-40
2022/07/30 04:17:13;;;;;;;;;;;;;;;28.53;44.41;100642.53;5074785;28;1048;-40
2022/07/30 04:19:40;;;;;;;;;;;;;;;28.57;43.85;100651.09;5068322;28;1971;-39
2022/07/30 04:22:05;;;;;;;;;;;;;;;28.56;43.72;100641.31;5071077;28;1213;-38
2022/07/30 04:24:31;;;;;;;;;;;;;;;28.58;44.30;100639.22;5049528;28;879;-40
2022/07/30 04:26:58;;;;;;;;;;;;;;;28.81;44.19;100630.84;5053083;28;2487;-39
2022/07/30 04:29:23;;;;;;;;;;;;;;;28.71;43.50;100639.31;5065853;28;1226;-40
2022/07/30 04:31:48;;;;;;;;;;;;;;;28.78;43.26;100636.66;5052844;28;1017;-41
2022/07/30 04:34:16;;;;;;;;;;;;;;;28.65;42.43;100636.56;5070557;28;1052;-40
2022/07/30 04:36:41;;;;;;;;;;;;;;;28.82;42.19;100637.13;5063430;28;890;-41
2022/07/30 04:39:07;;;;;;;;;;;;;;;28.81;42.33;100638.97;5069143;28;1967;-40
2022/07/30 04:41:32;;;;;;;;;;;;;;;28.74;41.53;100635.41;5067828;28;1063;-38
2022/07/30 04:43:57;;;;;;;;;;;;;;;28.89;41.55;100637.16;5068280;28;1037;-37
2022/07/30 04:46:22;;;;;;;;;;;;;;;28.94;41.35;100627.44;5071410;28;1305;-36
2022/07/30 04:48:48;;;;;;;;;;;;;;;28.91;40.48;100633.22;5067558;28;1255;-39
2022/07/30 04:51:18;;;;;;;;;;;;;;;28.94;40.60;100632.84;5067211;28;1084;-39
2022/07/30 04:53:43;;;;;;;;;;;;;;;28.99;40.21;100626.00;5069952;28;1239;-41
2022/07/30 04:56:08;;;;;;;;;;;;;;;28.98;39.80;100633.28;5050664;28;2520;-36
2022/07/30 04:58:34;;;;;;;;;;;;;;;28.84;40.19;100630.47;5070389;28;1172;-40
2022/07/30 05:00:59;;;;;;;;;;;;;;;28.93;40.33;100633.00;5067480;28;1983;-39
2022/07/30 05:03:24;;;;;;;;;;;;;;;28.94;40.29;100635.56;5068237;28;1278;-40
2022/07/30 05:05:49;;;;;;;;;;;;;;;28.88;39.92;100639.03;5067996;28;1262;-38
2022/07/30 05:08:15;;;;;;;;;;;;;;;28.93;40.29;100631.16;5070828;28;1191;-36
2022/07/30 05:10:40;;;;;;;;;;;;;;;28.89;39.85;100629.03;5071302;28;1223;-39
2022/07/30 05:13:09;;;;;;;;;;;;;;;28.91;39.42;100632.41;5047447;28;1613;-36
2022/07/30 05:15:34;;;;;;;;;;;;;;;28.96;39.66;100644.28;5069093;28;1172;-38
2022/07/30 05:18:00;;;;;;;;;;;;;;;28.99;39.58;100634.97;5068710;28;1291;-39
2022/07/30 05:20:25;;;;;;;;;;;;;;;28.93;38.84;100636.56;5067724;28;1979;-39
2022/07/30 05:22:50;;;;;;;;;;;;;;;28.92;39.19;100640.31;5065591;28;992;-40
2022/07/30 05:25:16;;;;;;;;;;;;;;;28.95;39.41;100639.06;5068658;28;993;-37
2022/07/30 05:27:41;;;;;;;;;;;;;;;28.90;38.60;100634.25;5057787;28;1944;-39
2022/07/30 05:30:07;;;;;;;;;;;;;;;28.94;38.84;100640.13;5072351;28;1044;-39
2022/07/30 05:32:32;;;;;;;;;;;;;;;28.83;39.30;100644.19;5070071;28;1167;-39
2022/07/30 05:34:58;;;;;;;;;;;;;;;28.88;39.69;100639.03;5069910;28;992;-37
2022/07/30 05:37:23;;;;;;;;;;;;;;;28.82;39.23;100640.69;5066109;28;1163;-38
2022/07/30 05:39:48;;;;;;;;;;;;;;;28.82;39.46;100639.81;5063607;28;1901;-38
2022/07/30 05:42:14;;;;;;;;;;;;;;;28.87;38.68;100636.53;5067794;28;1028;-38
2022/07/30 05:44:39;;;;;;;;;;;;;;;28.87;38.40;100636.53;5069711;28;1480;-37
2022/07/30 05:47:04;;;;;;;;;;;;;;;28.88;38.59;100633.63;5066602;28;1120;-39
2022/07/30 05:49:29;;;;;;;;;;;;;;;28.88;38.20;100632.81;5063618;28;1052;-39
2022/07/30 05:51:55;;;;;;;;;;;;;;;28.87;38.09;100636.53;5068655;28;1251;-39
2022/07/30 05:54:20;;;;;;;;;;;;;;;28.85;38.56;100636.72;5068649;28;1227;-39
2022/07/30 05:56:45;;;;;;;;;;;;;;;28.86;38.28;100641.13;5071006;28;2551;-37
2022/07/30 05:59:10;;;;;;;;;;;;;;;28.89;37.97;100632.59;5068003;28;1906;-37
2022/07/30 06:01:36;;;;;;;;;;;;;;;28.80;38.46;100626.50;5063601;28;1164;-38
2022/07/30 06:04:01;;;;;;;;;;;;;;;28.83;37.92;100634.22;5067668;28;1262;-36
2022/07/30 06:06:26;;;;;;;;;;;;;;;28.84;38.24;100627.75;5070223;28;1187;-40
2022/07/30 06:08:52;;;;;;;;;;;;;;;28.81;38.25;100627.34;5066017;28;1294;-38
2022/07/30 06:11:17;;;;;;;;;;;;;;;28.87;37.70;100631.97;5066256;28;1306;-40
2022/07/30 06:13:43;;;;;;;;;;;;;;;28.89;38.19;100618.22;5071424;28;1270;-40
2022/07/30 06:16:08;;;;;;;;;;;;;;;28.89;37.40;100624.47;5067640;28;1317;-39
2022/07/30 06:18:34;;;;;;;;;;;;;;;28.83;37.75;100620.69;5064149;28;1183;-40
2022/07/30 06:20:59;;;;;;;;;;;;;;;28.87;37.97;100613.00;5062321;28;1902;-39
2022/07/30 06:23:24;;;;;;;;;;;;;;;28.86;37.77;100611.34;5068577;28;1258;-40
2022/07/30 06:25:49;;;;;;;;;;;;;;;28.84;37.62;100608.81;5064924;28;1294;-39
2022/07/30 06:28:15;;;;;;;;;;;;;;;28.86;37.77;100605.94;5065547;28;2749;-39
2022/07/30 06:30:41;;;;;;;;;;;;;;;28.90;37.28;100606.34;5067926;28;1086;-38
2022/07/30 06:33:06;;;;;;;;;;;;;;;28.81;37.53;100603.78;5066864;28;1190;-39
2022/07/30 06:35:32;;;;;;;;;;;;;;;28.86;37.62;100597.81;5069357;28;1263;-39
2022/07/30 06:37:58;;;;;;;;;;;;;;;28.88;37.35;100603.03;5071056;28;1127;-38
2022/07/30 06:40:23;;;;;;;;;;;;;;;28.89;37.55;100599.25;5065510;28;1894;-38
2022/07/30 06:42:48;;;;;;;;;;;;;;;28.83;37.96;100601.72;5068841;28;1278;-39
2022/07/30 06:45:14;;;;;;;;;;;;;;;28.72;37.63;100602.28;5066063;28;1081;-32
2022/07/30 06:47:39;;;;;;;;;;;;;;;28.79;37.54;100596.91;5065758;28;1030;-33
2022/07/30 06:50:05;;;;;;;;;;;;;;;28.82;37.92;100602.78;5047847;28;1227;-31
2022/07/30 06:52:31;;;;;;;;;;;;;;;28.78;37.54;100595.25;5067499;28;1282;-35
2022/07/30 06:54:56;;;;;;;;;;;;;;;28.81;37.25;100592.16;5067832;28;1274;-31
2022/07/30 06:57:21;;;;;;;;;;;;;;;28.93;37.54;100597.81;5066637;28;2539;-30
2022/07/30 06:59:46;;;;;;;;;;;;;;;28.84;37.24;100592.56;5066921;28;1968;-30
2022/07/30 07:02:12;;;;;;;;;;;;;;;28.82;36.94;100591.09;5065554;28;1442;-35
2022/07/30 07:04:37;;;;;;;;;;;;;;;28.84;37.58;100591.75;5069037;28;1292;-32
2022/07/30 07:07:02;;;;;;;;;;;;;;;28.86;37.07;100586.97;5067959;28;1274;-33
2022/07/30 07:09:28;;;;;;;;;;;;;;;28.82;37.02;100586.53;5065141;28;1301;-33
2022/07/30 07:11:53;;;;;;;;;;;;;;;28.83;37.02;100590.06;5067308;28;1262;-32
2022/07/30 07:14:18;;;;;;;;;;;;;;;28.85;37.23;100588.84;5062254;28;1207;-32
2022/07/30 07:16:44;;;;;;;;;;;;;;;28.79;37.03;100584.22;5069539;28;1382;-36
2022/07/30 07:19:09;;;;;;;;;;;;;;;28.77;36.85;100580.88;5066277;28;1964;-32
2022/07/30 07:21:34;;;;;;;;;;;;;;;28.87;37.32;100587.78;5069298;28;1191;-32
2022/07/30 07:24:01;;;;;;;;;;;;;;;28.84;36.94;100581.72;5072104;28;1080;-32
2022/07/30 07:26:26;;;;;;;;;;;;;;;28.73;37.10;100588.53;5067565;28;2329;-34
2022/07/30 07:28:52;;;;;;;;;;;;;;;28.81;37.00;100587.53;5071420;28;1024;-31
2022/07/30 07:31:17;;;;;;;;;;;;;;;28.85;37.25;100588.84;5071228;28;1147;-34
2022/07/30 07:33:42;;;;;;;;;;;;;;;28.85;36.80;100590.69;5069384;28;1543;-30
2022/07/30 07:36:08;;;;;;;;;;;;;;;28.75;36.76;100579.38;5068094;28;1227;-30
2022/07/30 07:38:33;;;;;;;;;;;;;;;28.82;37.02;100583.81;5072187;28;1142;-32
2022/07/30 07:40:59;;;;;;;;;;;;;;;28.87;36.91;100585.94;5070192;28;1906;-31
2022/07/30 07:43:24;;;;;;;;;;;;;;;28.80;36.66;100577.75;5069761;28;1290;-35
2022/07/30 07:45:49;;;;;;;;;;;;;;;28.71;36.56;100578.97;5070334;28;1290;-34
2022/07/30 07:48:14;;;;;;;;;;;;;;;28.81;36.78;100587.53;5070327;28;1313;-31
2022/07/30 07:50:40;;;;;;;;;;;;;;;28.87;36.69;100580.50;5072151;28;1219;-33
2022/07/30 07:53:05;;;;;;;;;;;;;;;28.80;36.61;100583.19;5069678;28;1230;-31
2022/07/30 07:55:30;;;;;;;;;;;;;;;28.76;36.72;100578.38;5068750;28;1187;-33
2022/07/30 07:57:56;;;;;;;;;;;;;;;28.93;36.60;100579.72;5068765;28;2525;-34
2022/07/30 08:00:21;;;;;;;;;;;;;;;28.85;36.50;100579.88;5070398;28;1902;-31
2022/07/30 08:02:46;;;;;;;;;;;;;;;28.73;36.56;100569.59;5063175;28;1254;-34
2022/07/30 08:05:12;;;;;;;;;;;;;;;28.74;36.50;100573.16;5070101;28;1203;-33
2022/07/30 08:07:37;;;;;;;;;;;;;;;28.84;36.47;100570.09;5050748;28;1267;-34
2022/07/30 08:10:03;;;;;;;;;;;;;;;28.88;36.34;100562.41;5071295;28;1349;-35
2022/07/30 08:12:30;;;;;;;;;;;;;;;28.80;36.25;100564.22;5068565;28;1255;-34
2022/07/30 08:14:55;;;;;;;;;;;;;;;28.79;36.22;100567.13;5065525;28;1356;-32
2022/07/30 08:17:20;;;;;;;;;;;;;;;28.76;36.32;100562.13;5070037;28;1255;-33
2022/07/30 08:19:45;;;;;;;;;;;;;;;28.88;36.59;100560.50;5070162;28;1911;-35
2022/07/30 08:22:11;;;;;;;;;;;;;;;28.78;36.43;100562.78;5070417;28;1289;-32
2022/07/30 08:24:36;;;;;;;;;;;;;;;28.75;36.58;100555.03;5069593;28;1049;-33
2022/07/30 08:27:02;;;;;;;;;;;;;;;28.76;36.46;100559.41;5071213;28;2537;-35
2022/07/30 08:29:28;;;;;;;;;;;;;;;28.76;36.51;100557.53;5072304;28;1159;-32
2022/07/30 08:31:53;;;;;;;;;;;;;;;28.85;36.17;100561.75;5069769;28;1008;-31
2022/07/30 08:34:19;;;;;;;;;;;;;;;28.63;36.73;100554.75;5068960;28;1068;-30
2022/07/30 08:36:44;;;;;;;;;;;;;;;28.55;36.58;100558.44;5071278;28;1035;-31
2022/07/30 08:39:10;;;;;;;;;;;;;;;28.57;36.83;100550.97;5070389;28;1894;-32
2022/07/30 08:41:35;;;;;;;;;;;;;;;28.69;36.58;100552.09;5071896;28;1059;-34
2022/07/30 08:44:00;;;;;;;;;;;;;;;28.64;36.88;100546.44;5075036;28;1056;-34
2022/07/30 08:46:26;;;;;;;;;;;;;;;28.44;37.27;100535.47;5055388;28;1175;-32
2022/07/30 08:48:52;;;;;;;;;;;;;;;28.41;37.07;100541.28;5076320;28;1008;-37
2022/07/30 08:51:18;;;;;;;;;;;;;;;28.41;36.75;100542.09;5069724;28;896;-33
2022/07/30 08:53:43;;;;;;;;;;;;;;;28.41;37.47;100542.09;5070746;28;1028;-35
2022/07/30 08:56:08;;;;;;;;;;;;;;;28.62;36.92;100542.25;5070347;28;2405;-34
2022/07/30 08:58:34;;;;;;;;;;;;;;;28.48;37.28;100539.44;5067916;28;996;-31
2022/07/30 09:00:59;;;;;;;;;;;;;;;28.42;37.06;100537.53;5072462;28;1902;-33
2022/07/30 09:03:24;;;;;;;;;;;;;;;28.39;36.87;100532.53;5064208;28;1143;-33
2022/07/30 09:05:50;;;;;;;;;;;;;;;28.46;36.62;100534.22;5064625;28;985;-34
2022/07/30 09:08:15;;;;;;;;;;;;;;;28.53;36.60;100533.47;5072670;28;1171;-35
2022/07/30 09:10:42;;;;;;;;;;;;;;;28.70;36.96;100533.97;5074957;28;1510;-32
2022/07/30 09:13:23;;;;;;;;;;;;;;;28.75;37.15;100536.91;5075239;28;1091;-33
2022/07/30 09:15:48;;;;;;;;;;;;;;;28.73;37.33;100533.56;5073154;28;852;-35
2022/07/30 09:18:13;;;;;;;;;;;;;;;28.69;37.33;100530.44;5070371;28;1001;-32
2022/07/30 09:20:39;;;;;;;;;;;;;;;28.58;37.34;100533.69;5054119;28;1906;-33
2022/07/30 09:23:05;;;;;;;;;;;;;;;28.55;37.04;100534.09;5074876;28;1167;-32
2022/07/30 09:25:33;;;;;;;;;;;;;;;28.45;37.05;100524.47;5075134;28;1175;-32
2022/07/30 09:27:58;;;;;;;;;;;;;;;28.40;36.94;100523.38;5056680;28;2594;-34
2022/07/30 09:30:24;;;;;;;;;;;;;;;28.38;36.91;100522.75;5063919;28;938;-31
2022/07/30 09:32:53;;;;;;;;;;;;;;;28.57;37.14;100519.34;5065164;28;1111;-36
2022/07/30 09:35:18;;;;;;;;;;;;;;;28.64;37.17;100510.41;5071354;28;1041;-34
2022/07/30 09:37:44;;;;;;;;;;;;;;;28.74;37.17;100519.00;5068736;28;1512;-32
2022/07/30 09:40:13;;;;;;;;;;;;;;;28.81;36.83;100521.75;5060925;28;1975;-31
2022/07/30 09:42:39;;;;;;;;;;;;;;;28.65;37.26;100512.06;5067251;28;1203;-33
2022/07/30 09:45:08;;;;;;;;;;;;;;;28.61;36.99;100511.66;5065248;28;1227;-34
2022/07/30 09:47:37;;;;;;;;;;;;;;;28.73;36.75;100510.06;5065358;28;1477;-33
2022/07/30 09:50:07;;;;;;;;;;;;;;;28.81;36.91;100513.63;5068339;28;1238;-33
2022/07/30 09:52:32;;;;;;;;;;;;;;;28.64;37.13;100505.00;5064712;28;1235;-31
2022/07/30 09:54:58;;;;;;;;;;;;;;;28.65;37.00;100515.63;5067766;28;1293;-34
2022/07/30 09:57:23;;;;;;;;;;;;;;;28.63;36.78;100512.28;5069779;28;2382;-36
2022/07/30 09:59:49;;;;;;;;;;;;;;;28.64;36.47;100510.41;5067199;28;1898;-33
2022/07/30 10:02:14;;;;;;;;;;;;;;;28.73;36.67;100512.75;5069132;28;1096;-31
2022/07/30 10:04:39;;;;;;;;;;;;;;;28.79;36.96;100513.00;5069582;28;1079;-35
2022/07/30 10:07:04;;;;;;;;;;;;;;;28.82;36.92;100502.59;5068592;28;1021;-35
2022/07/30 10:09:33;;;;;;;;;;;;;;;28.79;36.84;100508.44;5043725;28;1395;-32
2022/07/30 10:11:59;;;;;;;;;;;;;;;28.66;36.90;100506.47;5048505;28;1263;-35
2022/07/30 10:14:27;;;;;;;;;;;;;;;28.60;36.93;100502.69;5048838;28;1046;-32
2022/07/30 10:16:52;;;;;;;;;;;;;;;28.65;36.65;100501.25;5050672;28;1258;-31
2022/07/30 10:19:18;;;;;;;;;;;;;;;28.56;36.82;100500.59;5050439;28;1902;-34
2022/07/30 10:21:43;;;;;;;;;;;;;;;28.67;36.69;100494.63;5046134;28;1888;-35
2022/07/30 10:24:08;;;;;;;;;;;;;;;28.79;36.80;100492.19;5048013;28;1239;-33
2022/07/30 10:26:34;;;;;;;;;;;;;;;28.84;36.94;100494.28;5045798;28;2526;-34
2022/07/30 10:29:00;;;;;;;;;;;;;;;28.88;37.02;100494.72;5029943;28;1240;-31
2022/07/30 10:31:25;;;;;;;;;;;;;;;28.94;36.97;100494.75;5045906;28;1243;-33
2022/07/30 10:33:50;;;;;;;;;;;;;;;28.82;37.11;100485.53;5047879;28;1211;-31
2022/07/30 10:36:15;;;;;;;;;;;;;;;28.78;36.74;100481.56;5029647;28;1410;-32
2022/07/30 10:38:41;;;;;;;;;;;;;;;28.73;36.64;100474.88;5030756;28;1263;-35
2022/07/30 10:41:09;;;;;;;;;;;;;;;28.69;36.78;100472.75;5044954;28;1972;-33
2022/07/30 10:43:43;;;;;;;;;;;;;;;28.66;36.94;100478.59;5046405;28;1212;-32
2022/07/30 10:46:19;;;;;;;;;;;;;;;28.87;37.35;100479.50;5052711;28;1049;-34
2022/07/30 10:48:44;;;;;;;;;;;;;;;28.88;37.68;100471.19;5032851;28;1033;-32
2022/07/30 10:51:10;;;;;;;;;;;;;;;28.92;37.77;100469.75;5030725;28;1029;-32
2022/07/30 10:53:39;;;;;;;;;;;;;;;28.92;37.34;100472.44;5035932;28;1630;-33
2022/07/30 10:56:12;;;;;;;;;;;;;;;28.94;36.95;100473.09;5049965;28;2407;-34
2022/07/30 10:58:56;;;;;;;;;;;;;;;28.83;36.94;100473.66;5052960;28;1006;-34
2022/07/30 11:01:21;;;;;;;;;;;;;;;28.85;37.07;100467.00;5046493;28;1914;-32
2022/07/30 11:04:07;;;;;;;;;;;;;;;28.95;36.94;100474.75;5043925;28;1108;-36
2022/07/30 11:06:32;;;;;;;;;;;;;;;29.00;37.17;100481.44;5050912;28;1755;-33
2022/07/30 11:08:57;;;;;;;;;;;;;;;28.95;37.96;100480.16;5055905;28;1249;-34
2022/07/30 11:11:23;;;;;;;;;;;;;;;28.89;38.02;100482.84;5067609;28;1485;-34
2022/07/30 11:13:51;;;;;;;;;;;;;;;28.91;37.38;100478.06;5076044;28;1159;-35
2022/07/30 11:16:20;;;;;;;;;;;;;;;28.94;36.74;100470.38;5077485;28;918;-32
2022/07/30 11:19:00;;;;;;;;;;;;;;;28.91;36.60;100472.66;5065947;28;1198;-32
2022/07/30 11:21:26;;;;;;;;;;;;;;;28.88;36.67;100467.66;5072417;28;2040;-30
2022/07/30 11:23:52;;;;;;;;;;;;;;;28.92;36.55;100467.03;5069696;28;1067;-35
2022/07/30 11:26:35;;;;;;;;;;;;;;;28.87;36.83;100471.38;5069850;28;1967;-32
2022/07/30 11:29:01;;;;;;;;;;;;;;;28.81;36.99;100460.31;5068540;28;1013;-31
2022/07/30 11:31:27;;;;;;;;;;;;;;;28.88;37.75;100463.06;5072829;28;1035;-31
2022/07/30 11:33:52;;;;;;;;;;;;;;;28.89;38.06;100467.44;5069974;28;1072;-34
2022/07/30 11:36:18;;;;;;;;;;;;;;;28.82;38.66;100469.28;5056551;28;1000;-36
2022/07/30 11:38:53;;;;;;;;;;;;;;;28.92;38.45;100467.03;5075594;28;981;-33
2022/07/30 11:41:18;;;;;;;;;;;;;;;28.93;37.72;100466.00;5076492;28;1903;-33
2022/07/30 11:43:43;;;;;;;;;;;;;;;28.94;38.14;100469.53;5067697;28;954;-31
2022/07/30 11:46:12;;;;;;;;;;;;;;;28.95;37.50;100463.06;5066260;28;957;-35
2022/07/30 11:48:39;;;;;;;;;;;;;;;28.93;37.86;100466.00;5070962;28;993;-36
2022/07/30 11:51:04;;;;;;;;;;;;;;;28.95;37.77;100457.66;5069413;28;1016;-35
2022/07/30 11:53:29;;;;;;;;;;;;;;;29.01;37.33;100469.59;5071979;28;1098;-33
2022/07/30 11:55:59;;;;;;;;;;;;;;;29.06;36.90;100464.41;5074005;28;2419;-33
2022/07/30 11:58:35;;;;;;;;;;;;;;;29.02;37.00;100469.41;5069171;28;974;-34
2022/07/30 12:01:02;;;;;;;;;;;;;;;29.01;36.99;100465.00;5074625;28;1954;-34
2022/07/30 12:03:30;;;;;;;;;;;;;;;29.03;37.12;100464.81;5072827;28;1243;-33
2022/07/30 12:05:55;;;;;;;;;;;;;;;29.02;37.30;100469.41;5069883;28;1282;-32
2022/07/30 12:08:21;;;;;;;;;;;;;;;29.01;37.59;100466.91;5069550;28;1084;-33
2022/07/30 12:10:56;;;;;;;;;;;;;;;29.05;37.56;100468.13;5070496;28;1614;-31
2022/07/30 12:13:21;;;;;;;;;;;;;;;29.04;37.92;100467.31;5067684;28;1033;-33
2022/07/30 12:15:47;;;;;;;;;;;;;;;29.07;38.38;100469.63;5067465;28;1061;-32
2022/07/30 12:18:13;;;;;;;;;;;;;;;29.13;38.33;100467.16;5070189;28;1231;-31
2022/07/30 12:20:41;;;;;;;;;;;;;;;29.11;38.01;100463.78;5072194;28;1976;-33
2022/07/30 12:23:10;;;;;;;;;;;;;;;29.17;37.91;100461.13;5071093;28;1286;-36
2022/07/30 12:25:41;;;;;;;;;;;;;;;29.09;38.19;100464.81;5069925;28;1279;-32
2022/07/30 12:28:07;;;;;;;;;;;;;;;29.10;37.97;100460.25;5064508;28;2620;-32
2022/07/30 12:30:32;;;;;;;;;;;;;;;29.14;37.99;100453.41;5070828;28;1286;-37
2022/07/30 12:32:58;;;;;;;;;;;;;;;29.15;37.74;100456.91;5070607;28;1270;-34
2022/07/30 12:35:40;;;;;;;;;;;;;;;29.19;37.04;100445.50;5052177;28;1223;-30
2022/07/30 12:38:06;;;;;;;;;;;;;;;29.14;37.17;100447.13;5065616;28;1069;-34
2022/07/30 12:40:31;;;;;;;;;;;;;;;29.07;37.01;100441.69;5069883;28;1902;-32
2022/07/30 12:42:56;;;;;;;;;;;;;;;29.11;37.13;100436.72;5070073;28;1025;-35
2022/07/30 12:45:29;;;;;;;;;;;;;;;29.10;37.13;100441.28;5068890;28;1219;-31